Time;durP1;ratioP1;P1;durP2;ratioP2;P2;SDS_P1;SDS_P2;PMS_P1;PMS_P2;Temp;Humidity;BMP_temperature;BMP_pressure;BME280_temperature;BME280_humidity;BME280_pressure;Samples;Min_cycle;Max_cycle;Signal;HPM_P1;HPM_P2
2021/04/29 00:00:32;;;;;;;12.30;10.17;;;;;;;18.50;56.13;98883.84;2062515;28;20026;-72
2021/04/29 00:01:32;;;;;;;14.17;9.73;;;;;;;18.50;56.12;98885.75;2061690;28;20026;-72
2021/04/29 00:02:32;;;;;;;11.33;8.93;;;;;;;18.50;56.10;98880.28;2060570;28;20041;-72
2021/04/29 00:03:34;;;;;;;10.93;9.20;;;;;;;18.50;55.98;98883.00;2059275;28;20512;-72
2021/04/29 00:04:35;;;;;;;13.25;9.38;;;;;;;18.50;56.10;98883.00;2059340;28;20378;-72
2021/04/29 00:05:36;;;;;;;12.07;9.87;;;;;;;18.50;56.16;98877.56;2061226;28;20068;-72
2021/04/29 00:06:36;;;;;;;13.02;10.02;;;;;;;18.49;56.07;98882.13;2063263;28;20025;-72
2021/04/29 00:07:37;;;;;;;10.00;8.53;;;;;;;18.49;56.06;98881.28;2063066;28;20038;-71
2021/04/29 00:08:38;;;;;;;11.97;9.27;;;;;;;18.50;56.11;98888.47;2059449;28;20034;-72
2021/04/29 00:09:39;;;;;;;11.65;9.32;;;;;;;18.49;56.01;98886.75;2062536;28;20026;-71
2021/04/29 00:10:39;;;;;;;10.93;8.70;;;;;;;18.48;56.02;98880.44;2062661;28;20761;-72
2021/04/29 00:11:41;;;;;;;11.70;8.83;;;;;;;18.47;55.97;98877.88;2058292;28;20092;-72
2021/04/29 00:12:42;;;;;;;12.07;9.98;;;;;;;18.49;55.99;98882.13;2061052;28;20038;-72
2021/04/29 00:13:42;;;;;;;12.53;9.27;;;;;;;18.49;56.04;98875.84;2062269;28;20631;-72
2021/04/29 00:14:42;;;;;;;9.43;8.43;;;;;;;18.47;56.11;98881.50;2062735;28;20270;-72
2021/04/29 00:15:44;;;;;;;12.23;9.53;;;;;;;18.47;56.23;98873.31;2063126;28;20023;-72
2021/04/29 00:16:45;;;;;;;12.65;9.35;;;;;;;18.47;55.92;98881.50;2063704;28;20027;-72
2021/04/29 00:17:45;;;;;;;11.07;9.40;;;;;;;18.49;55.94;98881.28;2062774;28;20443;-72
2021/04/29 00:18:46;;;;;;;10.47;8.70;;;;;;;18.49;55.99;98881.28;2062828;28;20112;-71
2021/04/29 00:19:46;;;;;;;11.37;8.67;;;;;;;18.48;55.97;98879.59;2059553;28;20046;-71
2021/04/29 00:20:47;;;;;;;10.73;8.73;;;;;;;18.48;56.06;98874.16;2061249;28;20030;-72
2021/04/29 00:21:47;;;;;;;13.17;9.57;;;;;;;18.48;56.17;98874.16;2063636;28;20057;-72
2021/04/29 00:22:48;;;;;;;12.90;9.70;;;;;;;18.47;56.02;98883.34;2062825;28;20042;-72
2021/04/29 00:23:48;;;;;;;12.90;9.80;;;;;;;18.48;56.00;98876.88;2063525;28;20084;-72
2021/04/29 00:24:49;;;;;;;11.13;9.40;;;;;;;18.48;55.95;98882.34;2062834;28;20393;-72
2021/04/29 00:25:49;;;;;;;10.23;8.63;;;;;;;18.48;56.05;98885.06;2059547;28;20026;-72
2021/04/29 00:26:50;;;;;;;11.93;9.93;;;;;;;18.48;56.11;98874.16;2055908;28;20042;-72
2021/04/29 00:27:50;;;;;;;10.80;9.13;;;;;;;18.48;56.01;98875.00;2060247;28;20034;-72
2021/04/29 00:28:52;;;;;;;12.70;10.53;;;;;;;18.48;56.12;98874.16;2063472;28;20026;-72
2021/04/29 00:29:52;;;;;;;;;;;;;;;18.42;56.22;98871.09;2063232;28;20034;-72
2021/04/29 00:30:53;;;;;;;12.70;9.07;;;;;;;18.45;56.15;98877.19;2063323;28;19956;-72
2021/04/29 00:31:53;;;;;;;10.73;9.33;;;;;;;18.43;56.04;98861.88;2063336;28;20071;-72
2021/04/29 00:32:54;;;;;;;10.80;8.73;;;;;;;18.44;56.16;98873.63;2058886;28;20129;-72
2021/04/29 00:33:54;;;;;;;12.03;9.30;;;;;;;18.45;55.95;98883.53;2056477;28;20038;-72
2021/04/29 00:34:55;;;;;;;9.33;8.33;;;;;;;18.44;56.01;98873.63;2063139;28;20064;-71
2021/04/29 00:35:59;;;;;;;10.40;8.57;;;;;;;18.46;56.25;98876.19;2062721;28;20491;-72
2021/04/29 00:37:00;;;;;;;11.32;8.88;;;;;;;18.46;56.04;98868.00;2056404;28;20042;-72
2021/04/29 00:38:00;;;;;;;12.10;9.10;;;;;;;18.46;56.05;98870.75;2062785;28;20027;-72
2021/04/29 00:39:01;;;;;;;10.63;9.37;;;;;;;18.45;56.20;98871.75;2063438;28;20033;-72
2021/04/29 00:40:03;;;;;;;12.40;8.77;;;;;;;18.45;56.04;98863.56;2056473;28;20030;-72
2021/04/29 00:41:03;;;;;;;;;;;;;;;18.41;56.11;98871.25;2063373;28;20093;-72
2021/04/29 00:42:04;;;;;;;14.43;9.75;;;;;;;18.41;56.23;98863.91;2062102;28;19913;-71
2021/04/29 00:43:04;;;;;;;11.03;8.87;;;;;;;18.41;56.22;98861.19;2062517;28;20018;-72
2021/04/29 00:44:05;;;;;;;11.23;9.20;;;;;;;18.41;56.10;98869.38;2061838;28;20805;-72
2021/04/29 00:45:08;;;;;;;9.57;8.53;;;;;;;18.42;56.02;98871.09;2061226;28;20703;-72
2021/04/29 00:46:13;;;;;;;11.55;8.50;;;;;;;18.42;55.91;98868.38;2058822;28;20053;-72
2021/04/29 00:47:13;;;;;;;11.02;8.60;;;;;;;18.43;55.92;98867.31;2058714;28;20109;-72
2021/04/29 00:48:15;;;;;;;11.03;8.40;;;;;;;18.43;56.09;98867.31;2062780;28;20037;-72
2021/04/29 00:49:17;;;;;;;10.00;8.65;;;;;;;18.44;55.86;98862.72;2061657;28;20084;-72
2021/04/29 00:50:20;;;;;;;11.60;8.60;;;;;;;18.45;55.95;98863.56;2059783;28;20137;-71
2021/04/29 00:51:21;;;;;;;12.00;9.70;;;;;;;18.45;56.04;98863.56;2062961;28;20034;-72
2021/04/29 00:52:22;;;;;;;10.68;8.60;;;;;;;18.43;56.00;98853.69;2058304;28;20741;-71
2021/04/29 00:53:35;;;;;;;10.37;8.13;;;;;;;18.42;55.93;98854.72;2063363;28;20378;-72
2021/04/29 00:54:35;;;;;;;13.05;9.23;;;;;;;18.43;55.99;98861.88;2057167;28;20077;-72
2021/04/29 00:55:36;;;;;;;11.40;9.10;;;;;;;18.43;56.00;98855.56;2057475;28;20035;-72
2021/04/29 00:56:36;;;;;;;11.80;9.07;;;;;;;18.43;56.03;98859.16;2056746;28;20061;-72
2021/04/29 00:57:37;;;;;;;10.93;8.30;;;;;;;18.43;56.08;98856.41;2063175;28;20081;-71
2021/04/29 00:58:38;;;;;;;11.70;9.03;;;;;;;18.42;55.93;98854.72;2063018;28;20499;-71
2021/04/29 00:59:39;;;;;;;10.95;9.55;;;;;;;18.43;55.98;98855.56;2063382;28;20235;-72
2021/04/29 01:00:39;;;;;;;11.93;9.00;;;;;;;18.42;56.06;98849.28;2061027;28;20061;-72
2021/04/29 01:01:40;;;;;;;12.47;9.23;;;;;;;18.42;55.88;98854.72;2061753;28;20061;-72
2021/04/29 01:02:48;;;;;;;10.23;8.13;;;;;;;18.42;55.90;98849.28;2059073;28;20042;-72
2021/04/29 01:03:51;;;;;;;11.55;9.02;;;;;;;18.43;55.94;98852.84;2058360;28;20030;-72
2021/04/29 01:05:00;;;;;;;11.05;8.75;;;;;;;18.44;55.91;98851.81;2060019;28;20450;-72
2021/04/29 01:06:07;;;;;;;10.75;8.00;;;;;;;18.43;56.05;98850.13;2062713;28;20030;-72
2021/04/29 01:07:11;;;;;;;9.13;7.95;;;;;;;18.42;55.94;98852.00;2062670;28;20037;-72
2021/04/29 01:08:20;;;;;;;10.05;8.52;;;;;;;18.41;55.82;98858.47;2062980;28;20097;-72
2021/04/29 01:09:32;;;;;;;10.38;8.77;;;;;;;18.42;55.83;98853.84;2059704;28;20030;-72
2021/04/29 01:10:42;;;;;;;8.88;7.88;;;;;;;18.41;56.03;98853.00;2061620;28;20141;-72
2021/04/29 01:11:47;;;;;;;10.98;7.90;;;;;;;18.42;55.83;98859.31;2059628;28;20565;-72
2021/04/29 01:13:17;;;;;;;12.07;9.65;;;;;;;18.39;55.90;98863.25;2061153;28;20128;-72
2021/04/29 01:14:18;;;;;;;10.93;8.68;;;;;;;18.41;55.86;98853.00;2060813;28;20068;-72
2021/04/29 01:15:19;;;;;;;11.93;8.82;;;;;;;18.41;56.01;98858.47;2062979;28;20030;-72
2021/04/29 01:16:22;;;;;;;11.48;8.02;;;;;;;18.42;56.01;98865.63;2056819;28;20036;-72
2021/04/29 01:17:24;;;;;;;10.88;8.77;;;;;;;18.43;55.85;98853.69;2060226;28;20563;-72
2021/04/29 01:18:26;;;;;;;11.05;8.77;;;;;;;18.41;55.80;98853.00;2058314;28;20041;-72
2021/04/29 01:20:07;;;;;;;10.30;8.10;;;;;;;18.40;55.99;98855.94;2062017;28;20030;-72
2021/04/29 01:21:13;;;;;;;10.45;7.47;;;;;;;18.39;55.91;98844.13;2057525;28;20598;-72
2021/04/29 01:22:14;;;;;;;11.43;9.05;;;;;;;18.41;55.89;98850.28;2058879;28;20019;-72
2021/04/29 01:23:49;;;;;;;11.93;9.50;;;;;;;18.39;56.04;98855.06;2058771;28;20510;-72
2021/04/29 01:25:12;;;;;;;9.70;8.15;;;;;;;18.38;55.97;98847.06;2059265;28;20125;-72
2021/04/29 01:26:20;;;;;;;11.25;8.27;;;;;;;18.38;56.03;98853.38;2057818;28;20027;-72
2021/04/29 01:27:21;;;;;;;11.35;8.50;;;;;;;18.38;55.89;98847.06;2056429;28;20096;-72
2021/04/29 01:28:23;;;;;;;12.20;8.43;;;;;;;18.38;55.90;98845.19;2062218;28;20026;-72
2021/04/29 01:29:27;;;;;;;10.82;8.68;;;;;;;18.39;55.92;98852.31;2061863;28;20022;-72
2021/04/29 01:30:27;;;;;;;10.70;8.60;;;;;;;18.40;55.91;98845.00;2062261;28;20217;-72
2021/04/29 01:31:32;;;;;;;9.17;8.17;;;;;;;18.39;55.84;98849.59;2062225;28;20037;-72
2021/04/29 01:32:33;;;;;;;10.80;8.90;;;;;;;18.41;55.79;98849.44;2059408;28;20054;-72
2021/04/29 01:33:36;;;;;;;10.77;7.82;;;;;;;18.39;55.77;98843.28;2056927;28;20069;-72
2021/04/29 01:34:37;;;;;;;10.48;7.72;;;;;;;18.40;55.86;98839.56;2059312;28;20046;-72
2021/04/29 01:35:38;;;;;;;10.23;7.93;;;;;;;18.39;55.79;98843.28;2060461;28;20023;-72
2021/04/29 01:36:40;;;;;;;10.65;8.85;;;;;;;18.41;55.69;98836.63;2061771;28;20034;-72
2021/04/29 01:37:41;;;;;;;10.43;8.65;;;;;;;18.41;55.73;98835.78;2061454;28;20018;-72
2021/04/29 01:38:42;;;;;;;11.07;8.27;;;;;;;18.39;55.93;98844.13;2062366;28;20081;-72
2021/04/29 01:39:43;;;;;;;11.73;8.82;;;;;;;18.40;55.75;98845.88;2061678;28;20030;-72
2021/04/29 01:40:45;;;;;;;12.52;8.48;;;;;;;18.39;55.75;98844.13;2061877;28;20053;-72
2021/04/29 01:41:47;;;;;;;;;;;;;;;18.37;55.93;98838.03;2054429;28;20025;-72
2021/04/29 01:42:48;;;;;;;10.75;8.38;;;;;;;18.38;55.89;98841.59;2055744;28;20004;-72
2021/04/29 01:43:49;;;;;;;9.40;7.35;;;;;;;18.37;55.93;98835.31;2061544;28;20108;-72
2021/04/29 01:44:51;;;;;;;11.30;8.35;;;;;;;18.36;56.00;98841.78;2062569;28;20084;-72
2021/04/29 01:45:52;;;;;;;11.95;8.73;;;;;;;18.38;56.04;98841.59;2060572;28;20108;-72
2021/04/29 01:46:56;;;;;;;10.80;8.70;;;;;;;18.38;55.81;98837.00;2059697;28;20162;-72
2021/04/29 01:47:57;;;;;;;9.38;8.00;;;;;;;18.38;55.93;98839.72;2062714;28;20030;-72
2021/04/29 01:48:57;;;;;;;10.63;8.77;;;;;;;18.40;55.92;98839.56;2061351;28;20046;-72
2021/04/29 01:49:58;;;;;;;10.40;8.40;;;;;;;18.40;55.86;98842.28;2056622;28;20031;-72
2021/04/29 01:51:00;;;;;;;9.57;7.73;;;;;;;18.40;55.74;98845.88;2059513;28;20070;-71
2021/04/29 01:52:01;;;;;;;9.32;7.45;;;;;;;18.39;55.76;98844.13;2061218;28;20034;-72
2021/04/29 01:53:04;;;;;;;9.43;8.17;;;;;;;18.38;55.84;98842.44;2061070;28;20034;-72
2021/04/29 01:54:06;;;;;;;9.63;8.35;;;;;;;18.40;55.82;98836.84;2062629;28;20038;-72
2021/04/29 01:55:08;;;;;;;8.65;7.63;;;;;;;18.39;55.74;98844.13;2062662;28;20046;-72
2021/04/29 01:56:10;;;;;;;8.95;7.97;;;;;;;18.40;55.77;98840.41;2062331;28;20022;-72
2021/04/29 01:57:10;;;;;;;9.88;7.90;;;;;;;18.40;55.68;98845.00;2054913;28;20161;-72
2021/04/29 01:58:11;;;;;;;10.33;8.70;;;;;;;18.41;55.76;98839.38;2060448;28;20026;-72
2021/04/29 01:59:12;;;;;;;10.73;8.47;;;;;;;18.40;55.69;98840.41;2062582;28;20018;-72
2021/04/29 02:00:13;;;;;;;8.90;7.90;;;;;;;18.39;55.65;98841.41;2062792;28;20106;-72
2021/04/29 02:01:13;;;;;;;9.30;8.00;;;;;;;18.40;55.87;98840.41;2062473;28;20030;-72
2021/04/29 02:02:14;;;;;;;9.57;7.67;;;;;;;18.40;55.60;98843.13;2063095;28;20026;-72
2021/04/29 02:03:14;;;;;;;9.80;7.97;;;;;;;18.41;55.78;98839.38;2061497;28;20556;-72
2021/04/29 02:04:15;;;;;;;10.60;8.73;;;;;;;18.41;55.67;98839.38;2062038;28;20026;-72
2021/04/29 02:05:16;;;;;;;9.63;7.87;;;;;;;18.42;55.73;98843.81;2060996;28;20054;-72
2021/04/29 02:06:16;;;;;;;9.60;8.53;;;;;;;18.41;55.70;98846.69;2062115;28;20699;-72
2021/04/29 02:07:17;;;;;;;10.23;7.67;;;;;;;18.40;55.58;98845.88;2055726;28;20041;-72
2021/04/29 02:08:18;;;;;;;10.55;7.72;;;;;;;18.40;55.69;98845.88;2060372;28;20445;-72
2021/04/29 02:09:18;;;;;;;11.97;7.87;;;;;;;18.41;55.57;98836.63;2056303;28;20142;-72
2021/04/29 02:10:19;;;;;;;10.97;8.10;;;;;;;18.40;55.76;98845.00;2058911;28;20034;-72
2021/04/29 02:11:20;;;;;;;12.05;8.63;;;;;;;18.40;55.60;98851.31;2059039;28;20026;-72
2021/04/29 02:12:22;;;;;;;9.77;7.23;;;;;;;18.39;55.71;98835.97;2062260;28;20038;-72
2021/04/29 02:13:23;;;;;;;;;;;;;;;18.34;55.70;98841.09;2062425;28;20027;-72
2021/04/29 02:14:42;;;;;;;11.50;8.95;;;;;;;18.36;55.77;98838.19;2056565;28;19918;-72
2021/04/29 02:15:48;;;;;;;9.75;7.85;;;;;;;18.36;55.62;98836.31;2061818;28;20519;-72
2021/04/29 02:16:51;;;;;;;10.20;8.18;;;;;;;18.37;55.79;98837.16;2059460;28;20397;-72
2021/04/29 02:18:11;;;;;;;8.63;7.63;;;;;;;18.34;55.82;98841.09;2062714;28;20034;-72
2021/04/29 02:19:13;;;;;;;11.88;8.32;;;;;;;18.36;55.73;98846.38;2062649;28;20033;-72
2021/04/29 02:20:15;;;;;;;8.20;7.30;;;;;;;18.36;55.72;98849.09;2061473;28;20058;-72
2021/04/29 02:21:17;;;;;;;8.80;7.18;;;;;;;18.37;55.51;98839.88;2060126;28;20828;-72
2021/04/29 02:22:21;;;;;;;10.38;8.82;;;;;;;18.37;55.63;98835.31;2062470;28;20185;-72
2021/04/29 02:23:24;;;;;;;8.32;7.30;;;;;;;18.38;55.60;98837.00;2062321;28;20698;-72
2021/04/29 02:24:29;;;;;;;10.45;7.45;;;;;;;18.38;55.60;98841.59;2059762;28;20114;-72
2021/04/29 02:25:30;;;;;;;10.00;8.85;;;;;;;18.38;55.76;98834.25;2059511;28;20029;-72
2021/04/29 02:26:32;;;;;;;8.47;7.00;;;;;;;18.38;55.56;98842.44;2060110;28;20030;-72
2021/04/29 02:27:34;;;;;;;9.90;7.85;;;;;;;18.39;55.70;98837.84;2062488;28;20304;-72
2021/04/29 02:28:35;;;;;;;10.15;7.65;;;;;;;18.38;55.72;98837.00;2062699;28;20042;-72
2021/04/29 02:29:36;;;;;;;8.77;7.70;;;;;;;18.39;55.57;98838.69;2061997;28;20129;-72
2021/04/29 02:30:37;;;;;;;9.60;8.00;;;;;;;18.39;55.52;98838.69;2062338;28;20499;-72
2021/04/29 02:31:38;;;;;;;10.90;8.33;;;;;;;18.38;55.66;98834.25;2061482;28;20389;-72
2021/04/29 02:32:39;;;;;;;7.87;6.93;;;;;;;18.37;55.64;98840.75;2062603;28;20027;-72
2021/04/29 02:33:40;;;;;;;9.50;7.32;;;;;;;18.39;55.46;98846.88;2062327;28;20031;-72
2021/04/29 02:34:41;;;;;;;9.73;7.70;;;;;;;18.38;55.62;98845.19;2062480;28;20214;-72
2021/04/29 02:35:44;;;;;;;9.68;8.13;;;;;;;18.38;55.67;98847.91;2061942;28;20453;-72
2021/04/29 02:36:45;;;;;;;8.52;6.80;;;;;;;18.37;55.52;98834.44;2060448;28;20054;-72
2021/04/29 02:37:49;;;;;;;10.38;8.30;;;;;;;18.37;55.64;98838.03;2057751;28;20061;-72
2021/04/29 02:38:53;;;;;;;8.23;7.32;;;;;;;18.37;55.68;98840.75;2059535;28;20040;-71
2021/04/29 02:39:54;;;;;;;9.45;7.65;;;;;;;18.38;55.79;98845.19;2062357;28;20696;-72
2021/04/29 02:40:57;;;;;;;9.55;7.60;;;;;;;18.38;55.61;98847.91;2062190;28;20022;-72
2021/04/29 02:41:58;;;;;;;8.90;7.28;;;;;;;18.38;55.64;98847.91;2062708;28;20045;-72
2021/04/29 02:42:59;;;;;;;9.38;7.25;;;;;;;18.38;55.41;98847.91;2059994;28;20090;-72
2021/04/29 02:44:00;;;;;;;9.90;7.70;;;;;;;18.38;55.33;98842.44;2068287;28;20116;-72
2021/04/29 02:45:01;;;;;;;9.60;7.78;;;;;;;18.38;55.68;98850.63;2062198;28;20250;-72
2021/04/29 02:46:02;;;;;;;11.93;7.77;;;;;;;18.37;55.64;98845.34;2061092;28;20034;-72
2021/04/29 02:47:04;;;;;;;9.57;6.90;;;;;;;18.37;55.62;98846.22;2060316;28;20117;-72
2021/04/29 02:48:05;;;;;;;9.25;8.00;;;;;;;18.39;55.64;98859.66;2052982;28;20457;-72
2021/04/29 02:49:06;;;;;;;9.57;7.07;;;;;;;18.38;55.56;98853.38;2057434;28;20109;-72
2021/04/29 02:50:12;;;;;;;11.38;8.15;;;;;;;18.38;55.47;98853.38;2062355;28;20045;-71
2021/04/29 02:51:13;;;;;;;8.95;7.63;;;;;;;18.37;55.64;98848.06;2062128;28;20037;-72
2021/04/29 02:52:14;;;;;;;10.93;8.85;;;;;;;18.37;55.62;98851.69;2059773;28;20038;-71
2021/04/29 02:53:17;;;;;;;9.90;8.03;;;;;;;18.36;55.52;98851.84;2056821;28;20544;-72
2021/04/29 02:54:18;;;;;;;8.60;7.28;;;;;;;18.36;55.63;98852.69;2054400;28;20030;-72
2021/04/29 02:55:21;;;;;;;9.50;7.43;;;;;;;18.36;55.45;98844.50;2062108;28;20018;-72
2021/04/29 02:56:21;;;;;;;8.77;7.13;;;;;;;18.37;55.62;98851.69;2062050;28;20030;-72
2021/04/29 02:57:22;;;;;;;9.23;7.00;;;;;;;18.39;55.56;98849.59;2061789;28;20050;-72
2021/04/29 02:58:23;;;;;;;9.95;7.90;;;;;;;18.36;55.54;98840.94;2061846;28;20050;-72
2021/04/29 02:59:23;;;;;;;12.37;7.57;;;;;;;18.37;55.53;98848.06;2056565;28;20067;-72
2021/04/29 03:00:25;;;;;;;10.47;7.50;;;;;;;18.37;55.60;98850.81;2061841;28;20060;-71
2021/04/29 03:01:25;;;;;;;9.98;7.85;;;;;;;18.37;55.48;98845.34;2057714;28;20777;-72
2021/04/29 03:02:25;;;;;;;9.47;7.77;;;;;;;18.36;55.61;98849.09;2062002;28;21403;-72
2021/04/29 03:03:26;;;;;;;9.17;7.40;;;;;;;18.35;55.48;98845.53;2061746;28;20034;-72
2021/04/29 03:04:27;;;;;;;8.70;6.90;;;;;;;18.37;55.55;98851.69;2062046;28;20073;-72
2021/04/29 03:05:27;;;;;;;11.10;8.23;;;;;;;18.37;55.53;98851.69;2062348;28;20026;-72
2021/04/29 03:06:28;;;;;;;9.27;7.33;;;;;;;18.38;55.55;98853.38;2061865;28;20151;-72
2021/04/29 03:07:30;;;;;;;8.55;7.28;;;;;;;18.37;55.46;98846.22;2059561;28;20101;-72
2021/04/29 03:08:31;;;;;;;9.07;6.80;;;;;;;18.36;55.57;98846.38;2059034;28;20062;-72
2021/04/29 03:09:31;;;;;;;9.87;7.53;;;;;;;18.35;55.61;98852.88;2061247;28;20046;-72
2021/04/29 03:10:32;;;;;;;8.40;7.37;;;;;;;18.35;55.50;98848.28;2054545;28;20030;-72
2021/04/29 03:11:34;;;;;;;9.60;8.30;;;;;;;18.36;55.60;98849.97;2060241;28;20393;-72
2021/04/29 03:12:35;;;;;;;8.68;7.05;;;;;;;18.35;55.63;98848.28;2061077;28;20023;-72
2021/04/29 03:13:36;;;;;;;8.88;7.22;;;;;;;18.35;55.63;98842.81;2061784;28;20026;-72
2021/04/29 03:14:36;;;;;;;9.63;7.50;;;;;;;18.35;55.79;98842.81;2052545;28;20031;-72
2021/04/29 03:15:37;;;;;;;8.13;7.33;;;;;;;18.35;55.50;98842.81;2061716;28;20117;-72
2021/04/29 03:16:37;;;;;;;9.13;7.50;;;;;;;18.35;55.63;98836.50;2062294;28;20437;-72
2021/04/29 03:17:38;;;;;;;8.73;7.30;;;;;;;18.35;55.52;98837.34;2062238;28;20018;-72
2021/04/29 03:18:39;;;;;;;9.83;8.07;;;;;;;18.36;55.65;98839.03;2062083;28;20022;-72
2021/04/29 03:19:39;;;;;;;10.90;7.43;;;;;;;18.36;55.48;98839.03;2058119;28;20097;-72
2021/04/29 03:20:41;;;;;;;9.00;7.30;;;;;;;18.35;55.32;98837.34;2061543;28;20026;-72
2021/04/29 03:21:41;;;;;;;10.00;7.75;;;;;;;18.34;55.55;98835.63;2061174;28;20026;-72
2021/04/29 03:22:42;;;;;;;8.97;7.40;;;;;;;18.33;55.44;98839.41;2060258;28;20026;-72
2021/04/29 03:23:42;;;;;;;9.13;7.57;;;;;;;18.34;55.50;98838.38;2062099;28;20112;-72
2021/04/29 03:24:43;;;;;;;9.50;7.63;;;;;;;18.33;55.57;98833.94;2061659;28;20042;-72
2021/04/29 03:25:44;;;;;;;10.13;7.43;;;;;;;18.34;55.51;98841.09;2062256;28;20100;-72
2021/04/29 03:26:45;;;;;;;9.63;7.25;;;;;;;18.33;55.58;98833.94;2056937;28;20648;-72
2021/04/29 03:27:46;;;;;;;8.63;7.07;;;;;;;18.34;55.58;98827.44;2061533;28;20026;-72
2021/04/29 03:28:46;;;;;;;9.60;7.90;;;;;;;18.33;55.48;98828.50;2062394;28;20026;-72
2021/04/29 03:29:46;;;;;;;9.53;7.00;;;;;;;18.33;55.57;98830.38;2061867;28;20026;-72
2021/04/29 03:30:47;;;;;;;11.27;8.07;;;;;;;18.33;55.51;98828.50;2061768;28;20061;-72
2021/04/29 03:31:47;;;;;;;8.33;6.93;;;;;;;18.33;55.39;98823.03;2057551;28;20548;-72
2021/04/29 03:32:48;;;;;;;9.33;6.90;;;;;;;18.32;55.55;98826.78;2062440;28;20034;-72
2021/04/29 03:33:49;;;;;;;10.10;7.50;;;;;;;18.33;55.65;98823.03;2061742;28;20420;-72
2021/04/29 03:34:51;;;;;;;8.25;7.05;;;;;;;18.33;55.58;98827.66;2059667;28;20042;-72
2021/04/29 03:35:51;;;;;;;8.00;6.90;;;;;;;18.33;55.63;98817.56;2060385;28;20128;-72
2021/04/29 03:36:51;;;;;;;11.67;7.97;;;;;;;18.32;55.68;98821.31;2058712;28;20134;-72
2021/04/29 03:37:52;;;;;;;9.83;7.47;;;;;;;18.33;55.55;98820.31;2059352;28;20041;-72
2021/04/29 03:38:53;;;;;;;7.20;6.27;;;;;;;18.33;55.42;98823.03;2056837;28;20030;-72
2021/04/29 03:39:53;;;;;;;8.18;6.97;;;;;;;18.32;55.67;98824.03;2062244;28;20038;-72
2021/04/29 03:40:54;;;;;;;8.23;6.70;;;;;;;18.31;55.19;98816.91;2062329;28;20042;-72
2021/04/29 03:41:54;;;;;;;7.20;6.20;;;;;;;18.31;55.48;98825.09;2061883;28;20374;-72
2021/04/29 03:42:56;;;;;;;7.50;6.77;;;;;;;18.32;55.48;98815.84;2063165;28;20045;-72
2021/04/29 03:43:56;;;;;;;7.80;6.20;;;;;;;18.32;55.48;98821.31;2058472;28;20101;-72
2021/04/29 03:45:00;;;;;;;8.13;6.57;;;;;;;18.31;55.61;98818.78;2060372;28;20532;-72
2021/04/29 03:46:00;;;;;;;9.32;6.75;;;;;;;18.32;55.50;98821.31;2059772;28;20117;-72
2021/04/29 03:47:01;;;;;;;9.60;6.60;;;;;;;18.32;55.59;98821.31;2061505;28;20041;-72
2021/04/29 03:48:02;;;;;;;9.67;7.27;;;;;;;18.32;55.51;98821.31;2062467;28;20429;-72
2021/04/29 03:49:03;;;;;;;8.73;7.30;;;;;;;18.32;55.49;98815.84;2057499;28;20030;-71
2021/04/29 03:50:04;;;;;;;8.40;7.23;;;;;;;18.32;55.49;98815.84;2062154;28;20703;-71
2021/04/29 03:51:05;;;;;;;9.00;7.18;;;;;;;18.31;55.50;98825.09;2062070;28;20168;-71
2021/04/29 03:52:05;;;;;;;7.83;6.30;;;;;;;18.32;55.47;98820.47;2057046;28;20027;-71
2021/04/29 03:53:06;;;;;;;8.80;7.90;;;;;;;18.31;55.63;98825.09;2057214;28;20089;-71
2021/04/29 03:54:07;;;;;;;9.30;7.80;;;;;;;18.32;55.46;98815.84;2062276;28;20246;-71
2021/04/29 03:55:08;;;;;;;10.40;6.97;;;;;;;18.31;55.48;98819.63;2061732;28;20037;-71
2021/04/29 03:56:08;;;;;;;7.82;6.75;;;;;;;18.32;55.44;98825.94;2059955;28;20038;-71
2021/04/29 03:57:09;;;;;;;8.60;6.90;;;;;;;18.32;55.40;98818.59;2062384;28;20504;-71
2021/04/29 03:58:09;;;;;;;9.93;7.53;;;;;;;18.31;55.52;98822.34;2060772;28;20040;-71
2021/04/29 03:59:10;;;;;;;7.90;6.70;;;;;;;18.32;55.52;98832.22;2061707;28;20486;-71
2021/04/29 04:00:11;;;;;;;8.47;7.20;;;;;;;18.32;55.43;98832.22;2061733;28;20084;-71
2021/04/29 04:01:11;;;;;;;8.90;7.50;;;;;;;18.31;55.40;98827.81;2061741;28;20045;-72
2021/04/29 04:02:12;;;;;;;7.67;6.33;;;;;;;18.32;55.58;98825.94;2062443;28;20038;-71
2021/04/29 04:03:12;;;;;;;8.27;6.57;;;;;;;18.31;55.50;98830.53;2060691;28;20049;-72
2021/04/29 04:04:13;;;;;;;9.67;6.90;;;;;;;18.31;55.52;98833.25;2062377;28;20052;-71
2021/04/29 04:05:14;;;;;;;8.53;6.87;;;;;;;18.31;55.53;98829.69;2062521;28;20026;-71
2021/04/29 04:06:14;;;;;;;7.85;6.53;;;;;;;18.31;55.41;98836.00;2062578;28;20033;-72
2021/04/29 04:07:16;;;;;;;7.07;6.23;;;;;;;18.30;55.61;98834.31;2055934;28;20062;-71
2021/04/29 04:08:17;;;;;;;;;;;;;;;18.26;55.67;98835.66;2063676;28;20106;-71
2021/04/29 04:09:17;;;;;;;9.57;6.88;;;;;;;18.27;55.52;98831.91;2062991;28;19969;-72
2021/04/29 04:10:18;;;;;;;9.27;6.73;;;;;;;18.28;55.53;98836.34;2062994;28;20014;-71
2021/04/29 04:11:18;;;;;;;8.10;6.60;;;;;;;18.27;55.50;98831.91;2062988;28;20050;-71
2021/04/29 04:12:18;;;;;;;8.27;6.80;;;;;;;18.28;55.70;98828.16;2063668;28;20030;-71
2021/04/29 04:13:20;;;;;;;8.80;7.20;;;;;;;18.28;55.61;98839.09;2062807;28;20104;-71
2021/04/29 04:14:21;;;;;;;8.35;7.20;;;;;;;18.28;55.51;98830.91;2063450;28;20026;-72
2021/04/29 04:15:21;;;;;;;7.57;6.63;;;;;;;18.27;55.56;98834.63;2062511;28;20117;-71
2021/04/29 04:16:21;;;;;;;9.27;7.03;;;;;;;18.29;55.50;98837.19;2061910;28;20045;-71
2021/04/29 04:17:22;;;;;;;8.93;7.07;;;;;;;18.28;55.68;98836.34;2055623;28;20494;-72
2021/04/29 04:18:22;;;;;;;8.30;6.73;;;;;;;18.28;55.56;98833.63;2060655;28;20018;-71
2021/04/29 04:19:23;;;;;;;8.90;6.23;;;;;;;18.28;55.59;98838.22;2060508;28;20045;-72
2021/04/29 04:20:23;;;;;;;8.03;7.23;;;;;;;18.29;55.51;98838.03;2059990;28;20026;-72
2021/04/29 04:21:25;;;;;;;7.40;6.67;;;;;;;18.28;55.53;98835.50;2058116;28;20041;-71
2021/04/29 04:22:26;;;;;;;9.30;7.10;;;;;;;18.28;55.56;98838.22;2059868;28;20019;-71
2021/04/29 04:23:26;;;;;;;9.80;6.53;;;;;;;18.29;55.42;98838.03;2061244;28;20580;-71
2021/04/29 04:24:26;;;;;;;9.10;7.13;;;;;;;18.28;55.54;98830.91;2058586;28;20033;-72
2021/04/29 04:25:27;;;;;;;8.30;7.30;;;;;;;18.29;55.47;98832.59;2062987;28;20034;-72
2021/04/29 04:26:27;;;;;;;8.43;7.03;;;;;;;18.29;55.43;98839.91;2060792;28;20081;-71
2021/04/29 04:27:28;;;;;;;8.43;7.13;;;;;;;18.28;55.67;98835.50;2054720;28;20110;-72
2021/04/29 04:28:29;;;;;;;7.40;6.07;;;;;;;18.28;55.55;98830.91;2060609;28;20085;-71
2021/04/29 04:29:29;;;;;;;8.65;7.25;;;;;;;18.28;55.52;98833.63;2055885;28;20162;-71
2021/04/29 04:30:30;;;;;;;9.97;7.20;;;;;;;18.27;55.39;98834.63;2060730;28;20543;-72
2021/04/29 04:31:31;;;;;;;8.60;6.27;;;;;;;18.28;55.43;98835.50;2063693;28;20030;-72
2021/04/29 04:32:31;;;;;;;8.83;6.77;;;;;;;18.26;55.56;98835.66;2063249;28;20034;-72
2021/04/29 04:33:31;;;;;;;8.37;6.47;;;;;;;18.26;55.61;98832.94;2062928;28;20034;-72
2021/04/29 04:34:32;;;;;;;8.63;7.13;;;;;;;18.28;55.67;98835.50;2063473;28;20481;-71
2021/04/29 04:35:34;;;;;;;7.93;6.60;;;;;;;18.28;55.64;98835.50;2062358;28;20908;-71
2021/04/29 04:36:34;;;;;;;9.02;7.07;;;;;;;18.27;55.66;98834.63;2059956;28;20026;-72
2021/04/29 04:37:35;;;;;;;8.47;7.00;;;;;;;18.28;55.55;98832.78;2062515;28;20030;-72
2021/04/29 04:38:35;;;;;;;8.17;6.90;;;;;;;18.28;55.56;98836.34;2062925;28;20054;-72
2021/04/29 04:39:36;;;;;;;9.50;6.93;;;;;;;18.27;55.46;98840.09;2063048;28;20022;-72
2021/04/29 04:40:36;;;;;;;7.90;6.60;;;;;;;18.29;55.55;98837.19;2063460;28;20018;-72
2021/04/29 04:41:37;;;;;;;7.67;6.87;;;;;;;18.27;55.60;98831.91;2063589;28;20431;-72
2021/04/29 04:42:38;;;;;;;7.63;6.53;;;;;;;18.29;55.51;98837.19;2058586;28;20129;-72
2021/04/29 04:43:38;;;;;;;8.03;6.40;;;;;;;18.28;55.46;98836.34;2069544;28;20105;-72
2021/04/29 04:44:38;;;;;;;8.23;6.90;;;;;;;18.28;55.48;98840.97;2062310;28;20034;-72
2021/04/29 04:45:43;;;;;;;6.57;5.73;;;;;;;18.27;55.37;98834.63;2062463;28;20057;-72
2021/04/29 04:46:43;;;;;;;7.28;6.20;;;;;;;18.27;55.56;98839.25;2061333;28;20038;-71
2021/04/29 04:47:43;;;;;;;7.10;6.40;;;;;;;18.26;55.38;98843.84;2061582;28;20113;-71
2021/04/29 04:48:44;;;;;;;8.33;6.37;;;;;;;18.27;55.47;98845.53;2060725;28;20038;-71
2021/04/29 04:49:44;;;;;;;7.70;6.50;;;;;;;18.27;55.48;98840.09;2063709;28;20732;-72
2021/04/29 04:50:45;;;;;;;8.77;7.37;;;;;;;18.26;55.50;98846.59;2063211;28;20498;-71